createdAt,value
2017-06-25T00:05:18.856Z,86.10
2017-06-25T00:07:47.097Z,87.90
2017-06-25T00:10:15.353Z,88.00
2017-06-25T00:12:43.652Z,90.50
2017-06-25T00:15:11.906Z,90.40
2017-06-25T00:17:40.154Z,90.40
2017-06-25T00:20:08.457Z,89.70
2017-06-25T00:22:36.703Z,89.60
2017-06-25T00:25:04.967Z,88.10
2017-06-25T00:27:33.287Z,88.60
2017-06-25T00:30:01.529Z,88.10
2017-06-25T00:32:33.137Z,89.20
2017-06-25T00:35:01.385Z,89.20
2017-06-25T00:37:29.635Z,89.10
2017-06-25T00:39:57.917Z,89.50
2017-06-25T00:42:26.169Z,90.10
2017-06-25T00:47:54.799Z,90.10
2017-06-25T00:50:23.043Z,90.20
2017-06-25T00:52:56.933Z,89.80
2017-06-25T00:55:25.207Z,90.90
2017-06-25T01:04:01.060Z,92.00
2017-06-25T01:06:29.303Z,92.00
2017-06-25T01:08:58.346Z,91.10
2017-06-25T01:17:26.864Z,91.10
2017-06-25T01:19:55.127Z,91.20
2017-06-25T01:22:23.385Z,91.00
2017-06-25T01:24:51.662Z,91.20
2017-06-25T01:27:19.916Z,91.20
2017-06-25T01:29:48.931Z,91.50
2017-06-25T01:32:17.223Z,91.50
2017-06-25T01:34:45.493Z,91.40
2017-06-25T01:37:13.731Z,91.70
2017-06-25T01:39:42.055Z,91.70
2017-06-25T01:48:12.233Z,92.00
2017-06-25T01:50:40.467Z,92.00
2017-06-25T01:53:08.710Z,92.00
2017-06-25T02:01:38.101Z,92.30
2017-06-25T02:04:06.334Z,92.30
2017-06-25T02:06:34.719Z,92.40
2017-06-25T02:21:05.929Z,92.70
2017-06-25T02:27:00.416Z,92.90
2017-06-25T02:29:28.680Z,93.00
2017-06-25T02:31:56.906Z,93.10
2017-06-25T02:34:25.962Z,93.20
2017-06-25T02:39:54.431Z,93.20
2017-06-25T02:42:22.674Z,93.30
2017-06-25T02:44:51.689Z,93.60
2017-06-25T02:47:19.965Z,93.60
2017-06-25T02:49:48.217Z,93.60
2017-06-25T02:55:16.974Z,93.70
2017-06-25T02:57:45.225Z,93.70
2017-06-25T03:00:13.458Z,93.70
2017-06-25T03:02:41.728Z,93.80
2017-06-25T03:08:10.013Z,93.80
2017-06-25T03:10:38.254Z,94.20
2017-06-25T03:13:06.492Z,94.30
2017-06-25T03:15:34.771Z,93.40
2017-06-25T03:18:03.801Z,96.00
2017-06-25T03:20:51.577Z,95.90
2017-06-25T03:23:19.822Z,95.80
2017-06-25T03:25:48.086Z,95.00
2017-06-25T03:28:16.373Z,94.80
2017-06-25T03:30:44.602Z,94.70
2017-06-25T03:39:14.622Z,94.70
2017-06-25T03:41:43.147Z,94.70
2017-06-25T03:44:11.396Z,95.00
2017-06-25T03:49:40.294Z,95.60
2017-06-25T03:52:08.842Z,94.70
2017-06-25T03:54:37.143Z,95.40
2017-06-25T03:57:05.421Z,95.60
2017-06-25T03:59:33.688Z,95.30
2017-06-25T04:02:01.947Z,95.70
2017-06-25T04:04:30.246Z,94.50
2017-06-25T04:06:58.501Z,95.30
2017-06-25T04:09:27.101Z,94.90
2017-06-25T04:13:09.424Z,94.20
2017-06-25T04:30:59.545Z,96.60
2017-06-25T04:33:27.807Z,96.50
2017-06-25T04:35:56.097Z,95.90
2017-06-25T04:38:24.368Z,94.90
2017-06-25T04:40:52.681Z,96.30
2017-06-25T04:46:21.603Z,96.80
2017-06-25T04:48:49.870Z,97.10
2017-06-25T04:51:18.169Z,95.60
2017-06-25T04:53:46.451Z,96.30
2017-06-25T04:56:14.708Z,95.60
2017-06-25T05:01:42.930Z,95.70
2017-06-25T05:04:11.964Z,95.60
2017-06-25T05:06:40.267Z,95.80
2017-06-25T05:09:08.547Z,95.80
2017-06-25T05:14:37.339Z,95.30
2017-06-25T05:17:05.572Z,95.40
2017-06-25T05:19:34.559Z,94.70
2017-06-25T05:22:03.614Z,94.60
2017-06-25T05:24:59.758Z,94.60
2017-06-25T05:27:28.069Z,94.00
2017-06-25T05:29:56.314Z,93.70
2017-06-25T05:32:24.614Z,93.90
2017-06-25T05:34:53.602Z,93.70
2017-06-25T05:37:21.858Z,93.70
2017-06-25T05:58:01.026Z,92.20
2017-06-25T06:00:30.079Z,92.00
2017-06-25T06:02:58.330Z,91.70
2017-06-25T06:08:42.731Z,90.70
2017-06-25T06:11:10.969Z,90.10
2017-06-25T06:13:39.216Z,91.00
2017-06-25T06:16:07.517Z,89.80
2017-06-25T06:18:35.798Z,90.10
2017-06-25T06:24:04.391Z,90.00
2017-06-25T06:26:32.622Z,89.60
2017-06-25T06:29:00.887Z,89.50
2017-06-25T06:31:29.158Z,86.50
2017-06-25T06:58:02.590Z,84.90
2017-06-25T07:00:30.829Z,84.90
2017-06-25T07:02:59.107Z,84.50
2017-06-25T07:17:29.976Z,83.20
2017-06-25T07:31:59.787Z,80.80
2017-06-25T07:34:28.089Z,79.30
2017-06-25T07:36:56.345Z,79.90
2017-06-25T07:39:25.406Z,81.00
2017-06-25T07:41:53.668Z,81.80
2017-06-25T07:44:21.904Z,80.50
2017-06-25T07:52:49.837Z,79.10
2017-06-25T08:40:32.786Z,66.90
2017-06-25T08:43:01.091Z,66.90
2017-06-25T09:33:38.492Z,57.50
2017-06-25T09:57:09.418Z,54.40
2017-06-25T09:59:37.646Z,52.40
2017-06-25T10:02:05.886Z,53.00
2017-06-25T10:10:35.251Z,52.90
2017-06-25T10:13:03.603Z,52.00
2017-06-25T10:15:32.029Z,51.20
2017-06-25T10:18:00.270Z,51.90
2017-06-25T10:20:42.206Z,54.00
2017-06-25T10:23:10.461Z,52.20
2017-06-25T10:25:39.559Z,52.30
2017-06-25T10:28:07.835Z,52.20
2017-06-25T10:30:36.066Z,52.40
2017-06-25T10:39:04.673Z,51.80
2017-06-25T10:41:32.932Z,51.20
2017-06-25T10:44:01.198Z,51.20
2017-06-25T11:19:59.770Z,50.60
2017-06-25T11:22:28.006Z,49.90
2017-06-25T11:24:56.253Z,51.10
2017-06-25T11:27:24.519Z,50.90
2017-06-25T11:30:01.248Z,51.70
2017-06-25T11:32:59.916Z,50.90
2017-06-25T11:35:28.213Z,50.80
2017-06-25T11:37:56.462Z,50.50
2017-06-25T11:40:24.733Z,50.50
2017-06-25T11:52:01.183Z,47.20
2017-06-25T11:54:29.462Z,49.00
2017-06-25T12:18:02.429Z,46.00
2017-06-25T12:20:30.704Z,45.90
2017-06-25T12:22:58.968Z,45.40
2017-06-25T12:31:28.609Z,44.30
2017-06-25T12:33:56.851Z,44.20
2017-06-25T12:36:25.104Z,44.70
2017-06-25T12:39:01.323Z,44.00
2017-06-25T12:41:29.548Z,45.50
2017-06-25T12:43:57.789Z,45.20
2017-06-25T12:46:26.078Z,44.20
2017-06-25T12:48:54.328Z,44.00
2017-06-25T12:51:22.623Z,44.70
2017-06-25T13:02:52.557Z,45.00
2017-06-25T13:05:21.546Z,44.00
2017-06-25T13:08:03.179Z,44.90
2017-06-25T13:19:33.170Z,40.30
2017-06-25T13:28:02.125Z,40.90
2017-06-25T13:30:30.374Z,41.80
2017-06-25T13:32:58.650Z,41.00
2017-06-25T13:41:27.927Z,39.20
2017-06-25T13:43:56.165Z,38.50
2017-06-25T13:46:24.503Z,40.60
2017-06-25T13:48:52.776Z,39.20
2017-06-25T13:51:21.019Z,37.70
2017-06-25T13:53:49.292Z,38.90
2017-06-25T13:56:17.543Z,38.80
2017-06-25T13:58:45.831Z,37.90
2017-06-25T14:01:14.068Z,38.00
2017-06-25T14:09:43.314Z,37.70
2017-06-25T14:12:11.553Z,37.70
2017-06-25T14:14:40.613Z,37.80
2017-06-25T14:23:09.887Z,36.50
2017-06-25T15:02:01.337Z,36.50
2017-06-25T15:31:49.836Z,38.20
2017-06-25T15:40:00.819Z,37.70
2017-06-25T16:25:01.230Z,38.90
2017-06-25T16:27:29.527Z,39.90
2017-06-25T16:57:01.862Z,39.20
2017-06-25T17:03:00.889Z,44.80
2017-06-25T17:11:29.915Z,48.60
2017-06-25T17:13:58.178Z,48.80
2017-06-25T17:16:26.428Z,49.60
2017-06-25T17:21:55.608Z,50.80
2017-06-25T17:24:23.868Z,52.60
2017-06-25T17:26:52.896Z,54.00
2017-06-25T17:29:47.080Z,54.00
2017-06-25T17:50:17.130Z,56.90
2017-06-25T17:52:45.381Z,57.40
2017-06-25T17:55:13.671Z,56.70
2017-06-25T17:57:41.983Z,57.50
2017-06-25T18:00:10.239Z,57.50
2017-06-25T18:05:38.427Z,58.90
2017-06-25T18:08:06.690Z,59.00
2017-06-25T18:10:34.956Z,59.70
2017-06-25T18:19:04.001Z,60.10
2017-06-25T18:21:32.361Z,61.90
2017-06-25T18:27:01.862Z,62.30
2017-06-25T18:32:31.468Z,62.50
2017-06-25T18:34:59.763Z,63.10
2017-06-25T18:37:28.841Z,63.30
2017-06-25T18:39:57.105Z,63.00
2017-06-25T18:45:26.733Z,61.10
2017-06-25T18:47:54.982Z,61.10
2017-06-25T18:50:23.267Z,59.90
2017-06-25T18:52:51.533Z,59.30
2017-06-25T19:07:21.337Z,58.60
2017-06-25T19:13:02.917Z,58.90
2017-06-25T19:15:31.148Z,58.60
2017-06-25T19:18:00.158Z,59.20
2017-06-25T19:20:28.447Z,59.10
2017-06-25T19:25:57.777Z,71.00
2017-06-25T19:40:28.414Z,76.10
2017-06-25T19:48:58.046Z,78.40
2017-06-25T20:00:28.255Z,83.50
2017-06-25T20:02:56.497Z,83.50
2017-06-25T20:11:26.075Z,84.30
2017-06-25T20:13:54.316Z,84.30
2017-06-25T20:16:22.558Z,86.30
2017-06-25T20:18:50.834Z,85.70
2017-06-25T20:24:20.498Z,87.60
2017-06-25T20:26:48.758Z,87.50
2017-06-25T20:29:17.040Z,87.90
2017-06-25T20:31:45.293Z,88.60
2017-06-25T20:34:39.004Z,88.80
2017-06-25T21:10:13.206Z,90.30
2017-06-25T21:12:41.430Z,90.70
2017-06-25T21:15:09.688Z,91.30
2017-06-25T21:21:00.361Z,91.60
2017-06-25T21:23:28.640Z,92.40
2017-06-25T21:25:56.863Z,92.70
2017-06-25T21:28:25.172Z,91.60
2017-06-25T21:30:54.169Z,92.60
2017-06-25T21:42:24.102Z,93.30
2017-06-25T21:44:52.331Z,93.40
2017-06-25T22:05:23.724Z,94.30
2017-06-25T22:07:52.004Z,94.70
2017-06-25T22:10:20.260Z,95.00
2017-06-25T22:18:49.739Z,95.10
2017-06-25T22:21:18.004Z,95.10
2017-06-25T22:23:46.274Z,95.20
2017-06-25T22:26:14.557Z,96.00
2017-06-25T22:37:43.980Z,97.60
2017-06-25T22:40:12.210Z,98.70
2017-06-25T22:43:01.259Z,99.10
2017-06-25T22:48:30.544Z,99.90
2017-06-25T22:50:58.781Z,99.90
2017-06-25T22:53:27.803Z,99.90
2017-06-25T23:16:59.940Z,99.90
2017-06-25T23:19:28.205Z,99.90
2017-06-25T23:21:56.510Z,99.90
2017-06-25T23:30:25.246Z,99.90
2017-06-25T23:32:53.490Z,99.90
2017-06-25T23:41:23.076Z,99.90
2017-06-25T23:43:52.070Z,99.90
2017-06-25T23:46:21.095Z,99.90
2017-06-25T23:48:49.348Z,99.90
2017-06-25T23:57:19.938Z,98.40
